Billings, MT

12:17 PM MDT on October 02, 2014 (GMT -0600)
Billings Logan International | Change Station
CLOSE
Current Station
Airport
Location: Billings,
Elevation: 3570 ft
Nearby Weather Stations

Elev 3570 ft 45.81 °N, 108.54 °W | Updated 24 minutes ago

Overcast
Overcast
46 °F
Feels Like 38 °F
N
22
Wind Variable Wind from North
Gusts 30 mph

Today
High -- | Low -- °F
--% Chance of Precip.
Yesterday
High -- | Low -- °F
Precip. -- in
7:13 AM 6:52 PM
First Quarter, 61% visible
Pressure 30.09 in
Visibility 10.0 miles
Clouds Few 4800 ft
Mostly Cloudy 7000 ft
Mostly Cloudy 10000 ft
Windchill 38 °F
Dew Point 34 °F
Humidity 63%
Rainfall 0.00 in
Snow Depth 1 in , 0 in , 0 in
UV 3 out of 12
Pollen 3.20 out of 12
Air Quality Not available.
Flu Activity Not available.
METAR KBIL 021753Z 01019G26KT 10SM FEW048 BKN070 BKN100 08/01 A3008 RMK AO2 PK WND 33033/1722 WSHFT 1649 SLP189 SHRASN DSNT W-E T00780011 10139 20044 53028

More Conditions Fewer Conditions

Pressure 30.09 in
Visibility 10.0 miles
Clouds Few 4800 ft
Mostly Cloudy 7000 ft
Mostly Cloudy 10000 ft
Windchill 38 °F
Dew Point 34 °F
Humidity 63%
Rainfall 0.00 in
Snow Depth 1 in , 0 in , 0 in
UV 3 out of 12
Pollen 3.20 out of 12
Air Quality Not available.
Flu Activity Not available.
METAR KBIL 021753Z 01019G26KT 10SM FEW048 BKN070 BKN100 08/01 A3008 RMK AO2 PK WND 33033/1722 WSHFT 1649 SLP189 SHRASN DSNT W-E T00780011 10139 20044 53028

More Conditions Fewer Conditions

10-Day Weather Forecast

Almanac

Astronomy

Oct. 02, 2014 Rise Set
Actual Time 7:13 AM MDT 6:52 PM MDT
Civil Twilight 6:43 AM MDT 7:21 PM MDT
Nautical Twilight 6:09 AM MDT 7:56 PM MDT
Astronomical Twilight 5:34 AM MDT 8:31 PM MDT
Moon 3:16 PM MDT 12:16 AM MDT
Length of Visible Light 12h 37m
Length of Day
11h 38m
Tomorrow will be 3m 12s shorter.
First Quarter, 61% of the Moon is Illuminated
Today
First Quarter
Oct 8
Full
Oct 15
Last Quarter
Oct 23
New
Oct 30
First Quarter

Today's Extremes

State Highs State Lows

Community

WunderPhotos

Upload Photos

1,758,316 photos uploaded!

WunderBlogs® & News

Nearby

Snow Depth

Station Depth Elevation
Brackett Creek 1 in 7320 ft
Daisy Peak 0 in 7600 ft
Beaver Creek 0 in 7850 ft
Many Glacier 3 in 4900 ft
Waldron 1 in 5600 ft

Earthquake Activity

City Distance Mag. Time & Date
No recent earthquake activity has been reported nearby.
Minimum magnitude displayed is 2.5.

Coastal Water Temperatures

Place Temperature
No Stations Reporting

Nearby Weather Stations